sensor_id;sensor_type;location;lat;lon;timestamp;P1;durP1;ratioP1;P2;durP2;ratioP2
5923;SDS011;2987;50.884;14.818;2022-11-15T00:02:00;38.63;;;24.87;;
5923;SDS011;2987;50.884;14.818;2022-11-15T00:04:45;37.90;;;24.83;;
5923;SDS011;2987;50.884;14.818;2022-11-15T00:07:30;37.10;;;24.50;;
5923;SDS011;2987;50.884;14.818;2022-11-15T00:10:14;35.20;;;24.17;;
5923;SDS011;2987;50.884;14.818;2022-11-15T00:12:59;40.07;;;25.13;;
5923;SDS011;2987;50.884;14.818;2022-11-15T00:15:44;37.53;;;24.23;;
5923;SDS011;2987;50.884;14.818;2022-11-15T00:18:29;40.33;;;24.87;;
5923;SDS011;2987;50.884;14.818;2022-11-15T00:21:14;37.97;;;23.70;;
5923;SDS011;2987;50.884;14.818;2022-11-15T00:24:00;34.47;;;23.47;;
5923;SDS011;2987;50.884;14.818;2022-11-15T00:26:44;35.13;;;23.60;;
5923;SDS011;2987;50.884;14.818;2022-11-15T00:29:29;40.97;;;26.47;;
5923;SDS011;2987;50.884;14.818;2022-11-15T00:32:13;38.77;;;25.70;;
5923;SDS011;2987;50.884;14.818;2022-11-15T00:34:58;37.43;;;24.33;;
5923;SDS011;2987;50.884;14.818;2022-11-15T00:37:43;38.10;;;23.83;;
5923;SDS011;2987;50.884;14.818;2022-11-15T00:40:27;42.43;;;25.40;;
5923;SDS011;2987;50.884;14.818;2022-11-15T00:43:12;36.13;;;24.70;;
5923;SDS011;2987;50.884;14.818;2022-11-15T00:45:57;36.40;;;24.30;;
5923;SDS011;2987;50.884;14.818;2022-11-15T00:48:42;35.97;;;24.47;;
5923;SDS011;2987;50.884;14.818;2022-11-15T00:51:27;35.17;;;24.53;;
5923;SDS011;2987;50.884;14.818;2022-11-15T00:54:11;40.23;;;25.03;;
5923;SDS011;2987;50.884;14.818;2022-11-15T00:56:56;41.53;;;26.87;;
5923;SDS011;2987;50.884;14.818;2022-11-15T00:59:41;46.13;;;28.77;;
5923;SDS011;2987;50.884;14.818;2022-11-15T01:02:26;41.07;;;26.47;;
5923;SDS011;2987;50.884;14.818;2022-11-15T01:05:12;44.67;;;26.87;;
5923;SDS011;2987;50.884;14.818;2022-11-15T01:07:56;43.77;;;27.87;;
5923;SDS011;2987;50.884;14.818;2022-11-15T01:10:41;45.47;;;27.67;;
5923;SDS011;2987;50.884;14.818;2022-11-15T01:13:26;46.80;;;28.00;;
5923;SDS011;2987;50.884;14.818;2022-11-15T01:16:16;41.87;;;26.87;;
5923;SDS011;2987;50.884;14.818;2022-11-15T01:19:02;49.43;;;29.27;;
5923;SDS011;2987;50.884;14.818;2022-11-15T01:21:50;42.70;;;27.90;;
5923;SDS011;2987;50.884;14.818;2022-11-15T01:24:38;39.73;;;26.63;;
5923;SDS011;2987;50.884;14.818;2022-11-15T01:27:22;41.50;;;26.97;;
5923;SDS011;2987;50.884;14.818;2022-11-15T01:30:07;46.10;;;30.30;;
5923;SDS011;2987;50.884;14.818;2022-11-15T01:32:52;44.27;;;28.53;;
5923;SDS011;2987;50.884;14.818;2022-11-15T01:35:38;43.83;;;28.17;;
5923;SDS011;2987;50.884;14.818;2022-11-15T01:38:24;42.00;;;26.43;;
5923;SDS011;2987;50.884;14.818;2022-11-15T01:41:17;44.40;;;27.43;;
5923;SDS011;2987;50.884;14.818;2022-11-15T01:47:33;43.93;;;26.23;;
5923;SDS011;2987;50.884;14.818;2022-11-15T01:50:22;42.50;;;26.90;;
5923;SDS011;2987;50.884;14.818;2022-11-15T01:58:43;42.47;;;27.33;;
5923;SDS011;2987;50.884;14.818;2022-11-15T02:01:30;42.97;;;27.10;;
5923;SDS011;2987;50.884;14.818;2022-11-15T02:07:25;48.63;;;28.73;;
5923;SDS011;2987;50.884;14.818;2022-11-15T02:10:12;47.73;;;29.57;;
5923;SDS011;2987;50.884;14.818;2022-11-15T02:13:01;43.27;;;28.63;;
5923;SDS011;2987;50.884;14.818;2022-11-15T02:21:22;43.13;;;26.63;;
5923;SDS011;2987;50.884;14.818;2022-11-15T02:46:15;41.90;;;28.37;;
5923;SDS011;2987;50.884;14.818;2022-11-15T02:49:07;41.77;;;27.23;;
5923;SDS011;2987;50.884;14.818;2022-11-15T02:51:52;40.53;;;27.00;;
5923;SDS011;2987;50.884;14.818;2022-11-15T02:54:39;42.90;;;27.20;;
5923;SDS011;2987;50.884;14.818;2022-11-15T02:57:29;44.27;;;28.20;;
5923;SDS011;2987;50.884;14.818;2022-11-15T03:00:36;50.17;;;29.67;;
5923;SDS011;2987;50.884;14.818;2022-11-15T03:03:36;45.03;;;29.30;;
5923;SDS011;2987;50.884;14.818;2022-11-15T03:18:17;50.63;;;30.67;;
5923;SDS011;2987;50.884;14.818;2022-11-15T03:21:06;50.10;;;31.13;;
5923;SDS011;2987;50.884;14.818;2022-11-15T03:23:54;46.70;;;28.53;;
5923;SDS011;2987;50.884;14.818;2022-11-15T03:26:42;52.53;;;29.60;;
5923;SDS011;2987;50.884;14.818;2022-11-15T03:29:31;48.13;;;30.17;;
5923;SDS011;2987;50.884;14.818;2022-11-15T03:32:20;45.40;;;28.67;;
5923;SDS011;2987;50.884;14.818;2022-11-15T03:35:10;48.23;;;30.33;;
5923;SDS011;2987;50.884;14.818;2022-11-15T03:38:11;49.83;;;30.00;;
5923;SDS011;2987;50.884;14.818;2022-11-15T03:41:04;45.53;;;30.17;;
5923;SDS011;2987;50.884;14.818;2022-11-15T03:43:53;49.93;;;29.87;;
5923;SDS011;2987;50.884;14.818;2022-11-15T03:46:58;51.10;;;30.57;;
5923;SDS011;2987;50.884;14.818;2022-11-15T03:50:07;48.00;;;31.53;;
5923;SDS011;2987;50.884;14.818;2022-11-15T03:52:56;54.03;;;32.13;;
5923;SDS011;2987;50.884;14.818;2022-11-15T03:55:43;54.07;;;33.33;;
5923;SDS011;2987;50.884;14.818;2022-11-15T03:58:27;56.07;;;33.53;;
5923;SDS011;2987;50.884;14.818;2022-11-15T04:01:12;50.47;;;32.90;;
5923;SDS011;2987;50.884;14.818;2022-11-15T04:03:56;48.07;;;30.70;;
5923;SDS011;2987;50.884;14.818;2022-11-15T04:06:41;50.47;;;31.50;;
5923;SDS011;2987;50.884;14.818;2022-11-15T04:09:26;48.27;;;29.70;;
5923;SDS011;2987;50.884;14.818;2022-11-15T04:12:11;49.17;;;31.10;;
5923;SDS011;2987;50.884;14.818;2022-11-15T04:14:56;51.00;;;29.83;;
5923;SDS011;2987;50.884;14.818;2022-11-15T04:17:59;48.00;;;28.93;;
5923;SDS011;2987;50.884;14.818;2022-11-15T04:20:44;44.83;;;28.90;;
5923;SDS011;2987;50.884;14.818;2022-11-15T04:23:49;45.43;;;29.27;;
5923;SDS011;2987;50.884;14.818;2022-11-15T04:26:52;46.50;;;29.83;;
5923;SDS011;2987;50.884;14.818;2022-11-15T04:29:37;47.73;;;28.83;;
5923;SDS011;2987;50.884;14.818;2022-11-15T04:32:22;42.83;;;28.83;;
5923;SDS011;2987;50.884;14.818;2022-11-15T04:35:06;44.93;;;29.13;;
5923;SDS011;2987;50.884;14.818;2022-11-15T04:37:52;46.77;;;29.80;;
5923;SDS011;2987;50.884;14.818;2022-11-15T04:40:37;45.80;;;28.90;;
5923;SDS011;2987;50.884;14.818;2022-11-15T04:43:22;46.90;;;30.20;;
5923;SDS011;2987;50.884;14.818;2022-11-15T04:46:07;46.17;;;29.80;;
5923;SDS011;2987;50.884;14.818;2022-11-15T04:48:52;46.70;;;29.00;;
5923;SDS011;2987;50.884;14.818;2022-11-15T04:51:38;45.40;;;29.03;;
5923;SDS011;2987;50.884;14.818;2022-11-15T04:54:23;48.43;;;28.43;;
5923;SDS011;2987;50.884;14.818;2022-11-15T04:57:08;48.17;;;29.13;;
5923;SDS011;2987;50.884;14.818;2022-11-15T04:59:52;47.03;;;28.87;;
5923;SDS011;2987;50.884;14.818;2022-11-15T05:02:37;44.77;;;29.07;;
5923;SDS011;2987;50.884;14.818;2022-11-15T05:05:42;44.73;;;28.13;;
5923;SDS011;2987;50.884;14.818;2022-11-15T05:08:27;49.37;;;28.77;;
5923;SDS011;2987;50.884;14.818;2022-11-15T05:11:12;47.20;;;29.27;;
5923;SDS011;2987;50.884;14.818;2022-11-15T05:13:57;44.33;;;27.83;;
5923;SDS011;2987;50.884;14.818;2022-11-15T05:16:41;41.40;;;27.50;;
5923;SDS011;2987;50.884;14.818;2022-11-15T05:19:26;48.50;;;29.30;;
5923;SDS011;2987;50.884;14.818;2022-11-15T05:22:11;45.17;;;28.53;;
5923;SDS011;2987;50.884;14.818;2022-11-15T05:24:56;47.07;;;28.63;;
5923;SDS011;2987;50.884;14.818;2022-11-15T05:27:40;41.93;;;27.87;;
5923;SDS011;2987;50.884;14.818;2022-11-15T05:30:27;45.33;;;27.97;;
5923;SDS011;2987;50.884;14.818;2022-11-15T05:33:11;44.47;;;27.03;;
5923;SDS011;2987;50.884;14.818;2022-11-15T05:36:00;44.17;;;28.17;;
5923;SDS011;2987;50.884;14.818;2022-11-15T05:38:51;44.77;;;28.80;;
5923;SDS011;2987;50.884;14.818;2022-11-15T05:41:52;49.83;;;29.63;;
5923;SDS011;2987;50.884;14.818;2022-11-15T05:44:56;46.10;;;29.23;;
5923;SDS011;2987;50.884;14.818;2022-11-15T05:47:42;54.30;;;29.67;;
5923;SDS011;2987;50.884;14.818;2022-11-15T05:50:28;51.33;;;30.23;;
5923;SDS011;2987;50.884;14.818;2022-11-15T05:53:15;49.13;;;29.63;;
5923;SDS011;2987;50.884;14.818;2022-11-15T05:56:02;50.60;;;30.07;;
5923;SDS011;2987;50.884;14.818;2022-11-15T05:58:49;48.07;;;29.83;;
5923;SDS011;2987;50.884;14.818;2022-11-15T06:01:37;45.83;;;29.73;;
5923;SDS011;2987;50.884;14.818;2022-11-15T06:04:23;51.00;;;30.07;;
5923;SDS011;2987;50.884;14.818;2022-11-15T06:07:08;45.97;;;28.83;;
5923;SDS011;2987;50.884;14.818;2022-11-15T06:09:52;49.23;;;29.97;;
5923;SDS011;2987;50.884;14.818;2022-11-15T06:12:37;47.73;;;29.70;;
5923;SDS011;2987;50.884;14.818;2022-11-15T06:15:22;47.13;;;29.43;;
5923;SDS011;2987;50.884;14.818;2022-11-15T06:18:06;45.33;;;29.60;;
5923;SDS011;2987;50.884;14.818;2022-11-15T06:20:51;48.70;;;29.43;;
5923;SDS011;2987;50.884;14.818;2022-11-15T06:23:36;46.50;;;30.10;;
5923;SDS011;2987;50.884;14.818;2022-11-15T06:26:21;46.17;;;29.40;;
5923;SDS011;2987;50.884;14.818;2022-11-15T06:29:05;44.97;;;27.70;;
5923;SDS011;2987;50.884;14.818;2022-11-15T06:31:50;46.37;;;30.17;;
5923;SDS011;2987;50.884;14.818;2022-11-15T06:34:36;46.53;;;28.93;;
5923;SDS011;2987;50.884;14.818;2022-11-15T06:37:20;47.87;;;29.57;;
5923;SDS011;2987;50.884;14.818;2022-11-15T06:40:05;49.53;;;28.37;;
5923;SDS011;2987;50.884;14.818;2022-11-15T06:42:51;46.70;;;28.53;;
5923;SDS011;2987;50.884;14.818;2022-11-15T06:45:42;44.83;;;28.23;;
5923;SDS011;2987;50.884;14.818;2022-11-15T06:48:27;45.77;;;29.63;;
5923;SDS011;2987;50.884;14.818;2022-11-15T06:51:17;45.77;;;28.47;;
5923;SDS011;2987;50.884;14.818;2022-11-15T06:54:01;46.07;;;29.03;;
5923;SDS011;2987;50.884;14.818;2022-11-15T06:56:46;48.10;;;29.03;;
5923;SDS011;2987;50.884;14.818;2022-11-15T06:59:31;48.80;;;29.53;;
5923;SDS011;2987;50.884;14.818;2022-11-15T07:02:16;48.70;;;30.00;;
5923;SDS011;2987;50.884;14.818;2022-11-15T07:05:00;45.50;;;28.27;;
5923;SDS011;2987;50.884;14.818;2022-11-15T07:07:50;49.70;;;30.40;;
5923;SDS011;2987;50.884;14.818;2022-11-15T07:10:36;45.73;;;29.40;;
5923;SDS011;2987;50.884;14.818;2022-11-15T07:13:24;51.80;;;30.60;;
5923;SDS011;2987;50.884;14.818;2022-11-15T07:16:10;56.97;;;31.10;;
5923;SDS011;2987;50.884;14.818;2022-11-15T07:18:55;52.50;;;32.03;;
5923;SDS011;2987;50.884;14.818;2022-11-15T07:21:40;55.43;;;31.67;;
5923;SDS011;2987;50.884;14.818;2022-11-15T07:24:24;49.40;;;31.03;;
5923;SDS011;2987;50.884;14.818;2022-11-15T07:27:09;50.23;;;30.87;;
5923;SDS011;2987;50.884;14.818;2022-11-15T07:29:54;50.13;;;29.80;;
5923;SDS011;2987;50.884;14.818;2022-11-15T07:32:38;53.20;;;30.90;;
5923;SDS011;2987;50.884;14.818;2022-11-15T07:35:25;54.57;;;31.20;;
5923;SDS011;2987;50.884;14.818;2022-11-15T07:38:11;43.77;;;29.20;;
5923;SDS011;2987;50.884;14.818;2022-11-15T07:40:56;51.03;;;29.57;;
5923;SDS011;2987;50.884;14.818;2022-11-15T07:43:43;49.43;;;30.47;;
5923;SDS011;2987;50.884;14.818;2022-11-15T07:46:28;44.73;;;28.87;;
5923;SDS011;2987;50.884;14.818;2022-11-15T07:49:13;45.67;;;28.93;;
5923;SDS011;2987;50.884;14.818;2022-11-15T07:51:57;49.30;;;29.97;;
5923;SDS011;2987;50.884;14.818;2022-11-15T07:54:42;50.93;;;30.10;;
5923;SDS011;2987;50.884;14.818;2022-11-15T07:57:27;44.40;;;28.40;;
5923;SDS011;2987;50.884;14.818;2022-11-15T08:00:13;50.10;;;29.40;;
5923;SDS011;2987;50.884;14.818;2022-11-15T08:03:06;42.90;;;28.47;;
5923;SDS011;2987;50.884;14.818;2022-11-15T08:05:53;45.37;;;28.27;;
5923;SDS011;2987;50.884;14.818;2022-11-15T08:08:38;46.47;;;28.77;;
5923;SDS011;2987;50.884;14.818;2022-11-15T08:11:23;42.87;;;27.00;;
5923;SDS011;2987;50.884;14.818;2022-11-15T08:14:07;46.00;;;28.73;;
5923;SDS011;2987;50.884;14.818;2022-11-15T08:16:54;47.13;;;28.53;;
5923;SDS011;2987;50.884;14.818;2022-11-15T08:19:39;43.40;;;27.37;;
5923;SDS011;2987;50.884;14.818;2022-11-15T08:22:23;44.93;;;28.20;;
5923;SDS011;2987;50.884;14.818;2022-11-15T08:25:08;46.33;;;28.27;;
5923;SDS011;2987;50.884;14.818;2022-11-15T08:27:53;47.07;;;28.13;;
5923;SDS011;2987;50.884;14.818;2022-11-15T08:30:39;42.60;;;26.83;;
5923;SDS011;2987;50.884;14.818;2022-11-15T08:33:27;43.83;;;28.83;;
5923;SDS011;2987;50.884;14.818;2022-11-15T08:36:15;42.47;;;26.57;;
5923;SDS011;2987;50.884;14.818;2022-11-15T08:39:00;43.10;;;27.30;;
5923;SDS011;2987;50.884;14.818;2022-11-15T08:41:45;46.93;;;28.83;;
5923;SDS011;2987;50.884;14.818;2022-11-15T08:44:30;45.60;;;28.37;;
5923;SDS011;2987;50.884;14.818;2022-11-15T08:47:14;45.10;;;26.40;;
5923;SDS011;2987;50.884;14.818;2022-11-15T08:49:59;43.83;;;27.87;;
5923;SDS011;2987;50.884;14.818;2022-11-15T08:52:44;42.90;;;27.67;;
5923;SDS011;2987;50.884;14.818;2022-11-15T08:55:37;45.43;;;27.17;;
5923;SDS011;2987;50.884;14.818;2022-11-15T08:58:23;44.23;;;28.57;;
5923;SDS011;2987;50.884;14.818;2022-11-15T09:01:14;39.10;;;25.60;;
5923;SDS011;2987;50.884;14.818;2022-11-15T09:04:01;42.50;;;27.97;;
5923;SDS011;2987;50.884;14.818;2022-11-15T09:06:48;44.10;;;26.80;;
5923;SDS011;2987;50.884;14.818;2022-11-15T09:09:32;46.13;;;27.13;;
5923;SDS011;2987;50.884;14.818;2022-11-15T09:12:17;39.70;;;26.73;;
5923;SDS011;2987;50.884;14.818;2022-11-15T09:15:02;39.93;;;26.57;;
5923;SDS011;2987;50.884;14.818;2022-11-15T09:17:47;41.13;;;26.87;;
5923;SDS011;2987;50.884;14.818;2022-11-15T09:20:32;45.00;;;27.23;;
5923;SDS011;2987;50.884;14.818;2022-11-15T09:23:17;40.10;;;27.20;;
5923;SDS011;2987;50.884;14.818;2022-11-15T09:26:02;43.47;;;27.10;;
5923;SDS011;2987;50.884;14.818;2022-11-15T09:28:49;44.23;;;27.20;;
5923;SDS011;2987;50.884;14.818;2022-11-15T09:31:33;39.07;;;25.77;;
5923;SDS011;2987;50.884;14.818;2022-11-15T09:34:18;41.17;;;26.40;;
5923;SDS011;2987;50.884;14.818;2022-11-15T09:37:04;41.77;;;25.73;;
5923;SDS011;2987;50.884;14.818;2022-11-15T09:39:48;42.60;;;25.57;;
5923;SDS011;2987;50.884;14.818;2022-11-15T09:42:42;40.70;;;25.23;;
5923;SDS011;2987;50.884;14.818;2022-11-15T09:45:54;36.83;;;25.10;;
5923;SDS011;2987;50.884;14.818;2022-11-15T09:49:03;37.37;;;25.27;;
5923;SDS011;2987;50.884;14.818;2022-11-15T09:51:40;38.97;;;25.40;;
5923;SDS011;2987;50.884;14.818;2022-11-15T09:54:16;38.70;;;25.27;;
5923;SDS011;2987;50.884;14.818;2022-11-15T09:56:53;41.07;;;25.93;;
5923;SDS011;2987;50.884;14.818;2022-11-15T09:59:35;38.07;;;25.10;;
5923;SDS011;2987;50.884;14.818;2022-11-15T10:02:17;36.57;;;25.57;;
5923;SDS011;2987;50.884;14.818;2022-11-15T10:04:54;40.00;;;26.27;;
5923;SDS011;2987;50.884;14.818;2022-11-15T10:07:26;38.67;;;25.23;;
5923;SDS011;2987;50.884;14.818;2022-11-15T10:10:04;32.27;;;23.63;;
5923;SDS011;2987;50.884;14.818;2022-11-15T10:12:54;34.33;;;23.00;;
5923;SDS011;2987;50.884;14.818;2022-11-15T10:15:21;35.33;;;24.27;;
5923;SDS011;2987;50.884;14.818;2022-11-15T10:20:46;31.80;;;22.33;;
5923;SDS011;2987;50.884;14.818;2022-11-15T10:23:19;33.30;;;22.73;;
5923;SDS011;2987;50.884;14.818;2022-11-15T10:25:50;33.53;;;23.13;;
5923;SDS011;2987;50.884;14.818;2022-11-15T10:28:25;33.17;;;23.77;;
5923;SDS011;2987;50.884;14.818;2022-11-15T10:30:56;31.47;;;23.40;;
5923;SDS011;2987;50.884;14.818;2022-11-15T10:33:35;32.27;;;23.37;;
5923;SDS011;2987;50.884;14.818;2022-11-15T10:36:17;39.50;;;23.83;;
5923;SDS011;2987;50.884;14.818;2022-11-15T10:38:52;34.97;;;24.90;;
5923;SDS011;2987;50.884;14.818;2022-11-15T10:41:21;36.37;;;23.90;;
5923;SDS011;2987;50.884;14.818;2022-11-15T10:50:05;40.47;;;26.43;;
5923;SDS011;2987;50.884;14.818;2022-11-15T10:52:51;36.33;;;25.93;;
5923;SDS011;2987;50.884;14.818;2022-11-15T10:55:20;39.23;;;25.83;;
5923;SDS011;2987;50.884;14.818;2022-11-15T10:57:53;38.00;;;26.13;;
5923;SDS011;2987;50.884;14.818;2022-11-15T11:00:27;37.43;;;26.30;;
5923;SDS011;2987;50.884;14.818;2022-11-15T11:02:59;40.60;;;27.30;;
5923;SDS011;2987;50.884;14.818;2022-11-15T11:05:31;39.60;;;27.37;;
5923;SDS011;2987;50.884;14.818;2022-11-15T11:08:01;37.87;;;26.40;;
5923;SDS011;2987;50.884;14.818;2022-11-15T11:10:52;41.90;;;27.53;;
5923;SDS011;2987;50.884;14.818;2022-11-15T11:13:22;40.43;;;26.87;;
5923;SDS011;2987;50.884;14.818;2022-11-15T11:15:53;43.23;;;27.80;;
5923;SDS011;2987;50.884;14.818;2022-11-15T11:18:33;41.63;;;28.60;;
5923;SDS011;2987;50.884;14.818;2022-11-15T11:21:14;45.47;;;28.97;;
5923;SDS011;2987;50.884;14.818;2022-11-15T11:23:51;44.30;;;28.40;;
5923;SDS011;2987;50.884;14.818;2022-11-15T11:26:35;44.70;;;28.37;;
5923;SDS011;2987;50.884;14.818;2022-11-15T11:29:19;42.97;;;28.70;;
5923;SDS011;2987;50.884;14.818;2022-11-15T11:31:58;47.00;;;30.30;;
5923;SDS011;2987;50.884;14.818;2022-11-15T11:34:50;44.80;;;28.90;;
5923;SDS011;2987;50.884;14.818;2022-11-15T11:37:44;45.53;;;30.53;;
5923;SDS011;2987;50.884;14.818;2022-11-15T11:40:35;46.67;;;29.37;;
5923;SDS011;2987;50.884;14.818;2022-11-15T11:56:36;48.50;;;30.67;;
5923;SDS011;2987;50.884;14.818;2022-11-15T11:59:07;58.77;;;32.87;;
5923;SDS011;2987;50.884;14.818;2022-11-15T12:01:55;58.03;;;31.93;;
5923;SDS011;2987;50.884;14.818;2022-11-15T12:04:31;58.90;;;34.77;;
5923;SDS011;2987;50.884;14.818;2022-11-15T12:15:01;61.77;;;34.53;;
5923;SDS011;2987;50.884;14.818;2022-11-15T12:17:36;58.43;;;33.47;;
5923;SDS011;2987;50.884;14.818;2022-11-15T12:20:13;56.50;;;34.00;;
5923;SDS011;2987;50.884;14.818;2022-11-15T12:22:48;55.93;;;34.97;;
5923;SDS011;2987;50.884;14.818;2022-11-15T12:25:27;62.43;;;33.63;;
5923;SDS011;2987;50.884;14.818;2022-11-15T12:28:01;59.63;;;34.83;;
5923;SDS011;2987;50.884;14.818;2022-11-15T12:30:40;57.30;;;34.10;;
5923;SDS011;2987;50.884;14.818;2022-11-15T12:33:28;54.93;;;34.07;;
5923;SDS011;2987;50.884;14.818;2022-11-15T12:41:36;62.77;;;35.03;;
5923;SDS011;2987;50.884;14.818;2022-11-15T12:49:42;61.97;;;34.53;;
5923;SDS011;2987;50.884;14.818;2022-11-15T12:52:10;60.30;;;35.07;;
5923;SDS011;2987;50.884;14.818;2022-11-15T12:54:49;61.00;;;35.60;;
5923;SDS011;2987;50.884;14.818;2022-11-15T12:57:27;60.83;;;34.97;;
5923;SDS011;2987;50.884;14.818;2022-11-15T12:59:59;63.50;;;35.93;;
5923;SDS011;2987;50.884;14.818;2022-11-15T13:02:31;61.63;;;36.37;;
5923;SDS011;2987;50.884;14.818;2022-11-15T13:08:07;67.37;;;37.30;;
5923;SDS011;2987;50.884;14.818;2022-11-15T13:10:33;67.47;;;37.57;;
5923;SDS011;2987;50.884;14.818;2022-11-15T13:13:00;65.23;;;37.30;;
5923;SDS011;2987;50.884;14.818;2022-11-15T13:15:37;63.83;;;38.47;;
5923;SDS011;2987;50.884;14.818;2022-11-15T13:23:26;70.27;;;39.07;;
5923;SDS011;2987;50.884;14.818;2022-11-15T13:28:46;73.90;;;40.07;;
5923;SDS011;2987;50.884;14.818;2022-11-15T13:34:14;74.27;;;39.30;;
5923;SDS011;2987;50.884;14.818;2022-11-15T13:36:59;82.67;;;40.90;;
5923;SDS011;2987;50.884;14.818;2022-11-15T13:41:55;72.87;;;40.63;;
5923;SDS011;2987;50.884;14.818;2022-11-15T13:52:07;82.57;;;41.43;;
5923;SDS011;2987;50.884;14.818;2022-11-15T13:54:39;74.27;;;40.40;;
5923;SDS011;2987;50.884;14.818;2022-11-15T13:59:54;78.80;;;42.00;;
5923;SDS011;2987;50.884;14.818;2022-11-15T14:02:25;82.30;;;40.90;;
5923;SDS011;2987;50.884;14.818;2022-11-15T14:05:02;80.90;;;42.53;;
5923;SDS011;2987;50.884;14.818;2022-11-15T14:08:01;73.17;;;39.87;;
5923;SDS011;2987;50.884;14.818;2022-11-15T14:10:37;82.30;;;40.60;;
5923;SDS011;2987;50.884;14.818;2022-11-15T14:13:10;73.87;;;39.20;;
5923;SDS011;2987;50.884;14.818;2022-11-15T14:15:54;73.30;;;38.33;;
5923;SDS011;2987;50.884;14.818;2022-11-15T14:18:40;74.20;;;38.20;;
5923;SDS011;2987;50.884;14.818;2022-11-15T14:21:23;75.13;;;38.87;;
5923;SDS011;2987;50.884;14.818;2022-11-15T14:23:49;79.83;;;40.63;;
5923;SDS011;2987;50.884;14.818;2022-11-15T14:26:32;70.80;;;37.43;;
5923;SDS011;2987;50.884;14.818;2022-11-15T14:31:51;77.83;;;38.97;;
5923;SDS011;2987;50.884;14.818;2022-11-15T14:34:18;77.73;;;40.30;;
5923;SDS011;2987;50.884;14.818;2022-11-15T14:36:47;85.10;;;41.60;;
5923;SDS011;2987;50.884;14.818;2022-11-15T14:39:13;84.53;;;39.77;;
5923;SDS011;2987;50.884;14.818;2022-11-15T14:41:40;80.40;;;39.93;;
5923;SDS011;2987;50.884;14.818;2022-11-15T14:44:06;85.13;;;42.63;;
5923;SDS011;2987;50.884;14.818;2022-11-15T14:46:35;83.30;;;40.73;;
5923;SDS011;2987;50.884;14.818;2022-11-15T14:49:02;74.03;;;39.67;;
5923;SDS011;2987;50.884;14.818;2022-11-15T14:51:28;86.43;;;41.33;;
5923;SDS011;2987;50.884;14.818;2022-11-15T14:53:54;78.00;;;41.77;;
5923;SDS011;2987;50.884;14.818;2022-11-15T14:56:20;83.37;;;40.93;;
5923;SDS011;2987;50.884;14.818;2022-11-15T14:58:46;86.17;;;41.50;;
5923;SDS011;2987;50.884;14.818;2022-11-15T15:01:16;81.70;;;41.13;;
5923;SDS011;2987;50.884;14.818;2022-11-15T15:03:45;79.27;;;40.60;;
5923;SDS011;2987;50.884;14.818;2022-11-15T15:06:11;89.63;;;41.27;;
5923;SDS011;2987;50.884;14.818;2022-11-15T15:08:39;81.70;;;42.00;;
5923;SDS011;2987;50.884;14.818;2022-11-15T15:11:10;83.53;;;42.43;;
5923;SDS011;2987;50.884;14.818;2022-11-15T15:13:40;90.37;;;42.00;;
5923;SDS011;2987;50.884;14.818;2022-11-15T15:16:06;92.30;;;40.97;;
5923;SDS011;2987;50.884;14.818;2022-11-15T15:18:32;85.87;;;41.70;;
5923;SDS011;2987;50.884;14.818;2022-11-15T15:20:59;88.87;;;43.33;;
5923;SDS011;2987;50.884;14.818;2022-11-15T15:23:28;91.27;;;42.77;;
5923;SDS011;2987;50.884;14.818;2022-11-15T15:25:56;91.73;;;43.93;;
5923;SDS011;2987;50.884;14.818;2022-11-15T15:28:22;92.13;;;45.20;;
5923;SDS011;2987;50.884;14.818;2022-11-15T15:30:49;91.77;;;43.57;;
5923;SDS011;2987;50.884;14.818;2022-11-15T15:33:15;88.13;;;42.47;;
5923;SDS011;2987;50.884;14.818;2022-11-15T15:35:41;95.00;;;43.23;;
5923;SDS011;2987;50.884;14.818;2022-11-15T15:38:11;91.80;;;42.40;;
5923;SDS011;2987;50.884;14.818;2022-11-15T15:40:38;88.20;;;42.23;;
5923;SDS011;2987;50.884;14.818;2022-11-15T15:43:04;95.23;;;43.00;;
5923;SDS011;2987;50.884;14.818;2022-11-15T15:45:35;92.77;;;43.10;;
5923;SDS011;2987;50.884;14.818;2022-11-15T15:48:03;90.13;;;42.53;;
5923;SDS011;2987;50.884;14.818;2022-11-15T15:50:32;92.43;;;42.43;;
5923;SDS011;2987;50.884;14.818;2022-11-15T15:53:00;93.13;;;41.93;;
5923;SDS011;2987;50.884;14.818;2022-11-15T15:55:28;90.53;;;42.10;;
5923;SDS011;2987;50.884;14.818;2022-11-15T15:57:55;85.03;;;39.90;;
5923;SDS011;2987;50.884;14.818;2022-11-15T16:00:22;90.60;;;42.53;;
5923;SDS011;2987;50.884;14.818;2022-11-15T16:02:50;101.73;;;44.03;;
5923;SDS011;2987;50.884;14.818;2022-11-15T16:05:17;98.57;;;42.67;;
5923;SDS011;2987;50.884;14.818;2022-11-15T16:07:44;95.70;;;41.90;;
5923;SDS011;2987;50.884;14.818;2022-11-15T16:10:21;91.57;;;42.43;;
5923;SDS011;2987;50.884;14.818;2022-11-15T16:12:51;94.60;;;41.90;;
5923;SDS011;2987;50.884;14.818;2022-11-15T16:15:18;99.43;;;43.03;;
5923;SDS011;2987;50.884;14.818;2022-11-15T16:17:48;98.73;;;43.13;;
5923;SDS011;2987;50.884;14.818;2022-11-15T16:23:06;99.93;;;42.80;;
5923;SDS011;2987;50.884;14.818;2022-11-15T16:30:25;98.13;;;44.27;;
5923;SDS011;2987;50.884;14.818;2022-11-15T16:32:51;96.77;;;44.17;;
5923;SDS011;2987;50.884;14.818;2022-11-15T16:35:19;99.27;;;43.67;;
5923;SDS011;2987;50.884;14.818;2022-11-15T16:37:45;94.13;;;43.90;;
5923;SDS011;2987;50.884;14.818;2022-11-15T16:43:00;99.93;;;43.90;;
5923;SDS011;2987;50.884;14.818;2022-11-15T16:45:28;101.47;;;46.00;;
5923;SDS011;2987;50.884;14.818;2022-11-15T16:52:51;103.73;;;45.87;;
5923;SDS011;2987;50.884;14.818;2022-11-15T16:55:18;106.40;;;46.23;;
5923;SDS011;2987;50.884;14.818;2022-11-15T16:57:45;110.17;;;47.47;;
5923;SDS011;2987;50.884;14.818;2022-11-15T17:00:11;111.53;;;47.40;;
5923;SDS011;2987;50.884;14.818;2022-11-15T17:02:43;108.77;;;45.97;;
5923;SDS011;2987;50.884;14.818;2022-11-15T17:05:10;108.17;;;47.67;;
5923;SDS011;2987;50.884;14.818;2022-11-15T17:07:37;111.77;;;48.00;;
5923;SDS011;2987;50.884;14.818;2022-11-15T17:10:05;116.07;;;48.23;;
5923;SDS011;2987;50.884;14.818;2022-11-15T17:12:33;106.37;;;47.17;;
5923;SDS011;2987;50.884;14.818;2022-11-15T17:15:00;112.10;;;47.77;;
5923;SDS011;2987;50.884;14.818;2022-11-15T17:17:26;110.10;;;47.07;;
5923;SDS011;2987;50.884;14.818;2022-11-15T17:19:52;111.53;;;48.37;;
5923;SDS011;2987;50.884;14.818;2022-11-15T17:22:19;98.47;;;45.57;;
5923;SDS011;2987;50.884;14.818;2022-11-15T17:24:45;105.80;;;47.87;;
5923;SDS011;2987;50.884;14.818;2022-11-15T17:27:12;111.40;;;50.20;;
5923;SDS011;2987;50.884;14.818;2022-11-15T17:29:38;120.53;;;51.03;;
5923;SDS011;2987;50.884;14.818;2022-11-15T17:32:05;107.47;;;46.30;;
5923;SDS011;2987;50.884;14.818;2022-11-15T17:34:32;115.57;;;50.67;;
5923;SDS011;2987;50.884;14.818;2022-11-15T17:36:59;108.80;;;49.70;;
5923;SDS011;2987;50.884;14.818;2022-11-15T17:39:25;106.33;;;48.33;;
5923;SDS011;2987;50.884;14.818;2022-11-15T17:41:51;105.30;;;47.33;;
5923;SDS011;2987;50.884;14.818;2022-11-15T17:44:17;105.30;;;48.00;;
5923;SDS011;2987;50.884;14.818;2022-11-15T17:46:43;105.50;;;48.27;;
5923;SDS011;2987;50.884;14.818;2022-11-15T17:49:09;104.57;;;49.63;;
5923;SDS011;2987;50.884;14.818;2022-11-15T17:51:35;111.57;;;49.33;;
5923;SDS011;2987;50.884;14.818;2022-11-15T17:54:01;108.30;;;50.30;;
5923;SDS011;2987;50.884;14.818;2022-11-15T17:56:28;107.87;;;49.00;;
5923;SDS011;2987;50.884;14.818;2022-11-15T17:58:56;113.97;;;50.87;;
5923;SDS011;2987;50.884;14.818;2022-11-15T18:01:26;111.20;;;49.50;;
5923;SDS011;2987;50.884;14.818;2022-11-15T18:03:55;117.80;;;49.80;;
5923;SDS011;2987;50.884;14.818;2022-11-15T18:06:25;114.20;;;49.50;;
5923;SDS011;2987;50.884;14.818;2022-11-15T18:08:55;106.70;;;48.40;;